^^
Lockford-Weather Station Historical Data
 
Daily Summary for August 21, 2019 Units:  English    Metric   Both
Daily Weekly Monthly Yearly Custom
  Current: High: Low: Average:
Temperature: 59.5 °F 78.4 °F 52.2 °F 62 °F
Dew Point: 59.3 °F 60.2 °F 39.7 °F 51.7 °F
Humidity: 99% 99% 25% 73%
Wind Speed: 0mph 9.2mph 0mph 1.2mph
Wind Gust: 5mph 17mph - -
WindCalm - - West
Pressure: 30.06 in 30.12 in 30.02 in -
Precipitation: 0.035 in      
Historical Graphs
 
 
Tabular Data for August 21, 2019
Time Temperature Dew Point Pressure Wind Wind Speed Wind Gust Humidity Rainfall Rate (Hourly)
00:00 61.2 °F 50.5 °F 30.10 in Calm     68% 0 in
00:05 61.2 °F 50.5 °F 30.09 in Calm     68% 0 in
00:10 60.4 °F 49.8 °F 30.09 in Calm     68% 0 in
00:15 60.3 °F 49.7 °F 30.09 in Calm     68% 0 in
00:20 59.9 °F 49.7 °F 30.10 in Calm     69% 0 in
00:25 59.7 °F 49.9 °F 30.10 in Calm     70% 0 in
00:30 59.4 °F 50 °F 30.10 in Calm     71% 0 in
00:35 59.5 °F 50.5 °F 30.10 in Calm     72% 0 in
00:40 59.4 °F 51.1 °F 30.10 in Calm     74% 0 in
00:45 59 °F 51.1 °F 30.10 in Calm     75% 0 in
00:50 58.8 °F 50.9 °F 30.10 in Calm     75% 0 in
00:55 58.3 °F 50.4 °F 30.10 in Calm     75% 0 in
01:00 58.1 °F 50.6 °F 30.10 in Calm     76% 0 in
01:05 58.1 °F 50.6 °F 30.10 in Calm     76% 0 in
01:10 57.9 °F 50.7 °F 30.10 in Calm     77% 0 in
01:15 57.7 °F 50.5 °F 30.10 in Calm     77% 0 in
01:20 57.4 °F 50.6 °F 30.10 in Calm     78% 0 in
01:25 57.4 °F 51.6 °F 30.10 in Calm     81% 0 in
01:30 57.2 °F 51.4 °F 30.10 in Calm     81% 0 in
01:35 57.2 °F 51.4 °F 30.09 in Calm     81% 0 in
01:40 57.2 °F 51.1 °F 30.10 in Calm     80% 0 in
01:45 56.7 °F 50.6 °F 30.09 in Calm     80% 0 in
01:50 56.7 °F 51.2 °F 30.10 in Calm     82% 0 in
01:55 56.4 °F 51 °F 30.09 in Calm     82% 0 in
02:00 56.1 °F 50.4 °F 30.09 in Calm     81% 0 in
02:05 56.1 °F 50.4 °F 30.09 in Calm     81% 0 in
02:10 55.6 °F 50.2 °F 30.09 in Calm     82% 0 in
02:15 55.2 °F 50.1 °F 30.09 in Calm     83% 0 in
02:20 55.2 °F 50.1 °F 30.09 in Calm     83% 0 in
02:25 55 °F 50.3 °F 30.09 in Calm     84% 0 in
02:30 54.9 °F 50.4 °F 30.09 in Calm     85% 0 in
02:35 54.7 °F 50.6 °F 30.09 in Calm     86% 0 in
02:40 54.7 °F 51.5 °F 30.09 in Calm     89% 0 in
02:45 54.7 °F 51.8 °F 30.09 in Calm     90% 0 in
02:50 54.7 °F 51.5 °F 30.09 in Calm     89% 0 in
02:55 54.5 °F 51.3 °F 30.09 in Calm     89% 0 in
03:00 54.5 °F 51.3 °F 30.09 in Calm     89% 0 in
03:05 54.7 °F 51.5 °F 30.09 in Calm     89% 0 in
03:10 54.4 °F 51 °F 30.09 in Calm     88% 0 in
03:15 54.1 °F 50.7 °F 30.09 in Calm     88% 0 in
03:20 54.1 °F 51.3 °F 30.09 in Calm     90% 0 in
03:25 54.1 °F 51.3 °F 30.09 in Calm     90% 0 in
03:30 54 °F 51.4 °F 30.09 in Calm     91% 0 in
03:35 54.3 °F 51.7 °F 30.10 in Calm     91% 0 in
03:40 54.5 °F 51.9 °F 30.10 in Calm     91% 0 in
03:45 54.3 °F 51.4 °F 30.10 in Calm     90% 0 in
03:50 54.1 °F 51.3 °F 30.09 in Calm     90% 0 in
03:55 54 °F 51.7 °F 30.10 in Calm     92% 0 in
04:00 53.9 °F 51.9 °F 30.10 in Calm     93% 0 in
04:05 53.8 °F 51.8 °F 30.09 in Calm     93% 0 in
04:10 53.4 °F 51.7 °F 30.09 in Calm     94% 0 in
04:15 53.4 °F 51.7 °F 30.10 in Calm     94% 0 in
04:20 53.6 °F 51.9 °F 30.10 in Calm     94% 0 in
04:25 53.6 °F 52.2 °F 30.10 in Calm     95% 0 in
04:30 53.4 °F 52.3 °F 30.10 in Calm     96% 0 in
04:35 53.2 °F 52.1 °F 30.10 in Calm     96% 0 in
04:40 53.1 °F 52.2 °F 30.10 in Calm     97% 0 in
04:45 53.1 °F 52.5 °F 30.10 in Calm     98% 0 in
04:50 53.1 °F 52.5 °F 30.10 in Calm     98% 0 in
04:55 53.2 °F 52.7 °F 30.10 in Calm     98% 0 in
05:00 53.2 °F 52.6 °F 30.10 in Calm     98% 0 in
05:05 53.1 °F 52.5 °F 30.11 in Calm     98% 0 in
05:10 53.1 °F 52.8 °F 30.11 in Calm     99% 0 in
05:15 53 °F 52.5 °F 30.11 in Calm     98% 0 in
05:20 53.1 °F 52.5 °F 30.10 in Calm     98% 0 in
05:25 52.9 °F 52.3 °F 30.11 in Calm     98% 0 in
05:30 52.9 °F 52.6 °F 30.11 in Calm     99% 0 in
05:35 53.1 °F 52.8 °F 30.11 in Calm     99% 0 in
05:40 52.9 °F 52.6 °F 30.11 in Calm     99% 0 in
05:45 52.9 °F 52.6 °F 30.11 in Calm     99% 0 in
05:50 52.9 °F 52.6 °F 30.11 in Calm     99% 0 in
05:55 52.7 °F 52.4 °F 30.11 in Calm     99% 0 in
06:00 52.7 °F 52.4 °F 30.10 in Calm     99% 0 in
06:05 52.9 °F 52.6 °F 30.11 in Calm     99% 0 in
06:10 52.7 °F 52.4 °F 30.11 in Calm     99% 0 in
06:15 52.5 °F 52.2 °F 30.11 in Calm     99% 0 in
06:20 52.3 °F 52.1 °F 30.11 in Calm     99% 0 in
06:25 52.2 °F 51.9 °F 30.11 in Calm   3 mph 99% 0 in
06:30 52.3 °F 52.1 °F 30.11 in NE 1 mph 3 mph 99% 0 in
06:35 52.3 °F 52.1 °F 30.11 in Calm   2 mph 99% 0 in
06:40 52.5 °F 52.2 °F 30.12 in Calm   2 mph 99% 0 in
06:45 52.7 °F 52.4 °F 30.12 in Calm   2 mph 99% 0 in
06:50 53.1 °F 52.8 °F 30.12 in Calm     99% 0 in
06:55 53.2 °F 53 °F 30.12 in Calm     99% 0 in
07:00 53.4 °F 53.1 °F 30.12 in Calm     99% 0 in
07:05 54.2 °F 54 °F 30.12 in Calm     99% 0 in
07:10 55.8 °F 55.5 °F 30.12 in Calm     99% 0 in
07:15 57.4 °F 56.8 °F 30.12 in Calm     98% 0 in
07:20 59.2 °F 58 °F 30.12 in Calm     96% 0 in
07:25 61.2 °F 58.2 °F 30.12 in Calm     90% 0 in
07:30 60.7 °F 54.1 °F 30.12 in Calm     79% 0 in
07:35 60.4 °F 52.8 °F 30.12 in Calm   2 mph 76% 0 in
07:40 60.4 °F 52.8 °F 30.12 in SSW 1 mph 3 mph 76% 0 in
07:45 60.1 °F 52.2 °F 30.12 in Calm   3 mph 75% 0 in
07:50 60.1 °F 52.1 °F 30.12 in Calm   1 mph 75% 0 in
07:55 60 °F 51.7 °F 30.12 in Calm     74% 0 in
08:00 59.9 °F 51.6 °F 30.11 in ESE 1 mph 4 mph 74% 0 in
08:05 61.2 °F 52.5 °F 30.12 in ESE 1 mph 3 mph 73% 0 in
08:10 61.7 °F 51.4 °F 30.12 in Calm   3 mph 69% 0 in
08:15 61.6 °F 52.1 °F 30.12 in Calm   2 mph 71% 0 in
08:20 61.5 °F 51.6 °F 30.12 in Calm   2 mph 70% 0 in
08:25 61.6 °F 52.1 °F 30.12 in Calm   2 mph 71% 0 in
08:30 63.4 °F 53.4 °F 30.12 in Calm     70% 0 in
08:35 65.4 °F 54.6 °F 30.12 in Calm   1 mph 68% 0 in
08:40 66.6 °F 54.5 °F 30.12 in Calm   2 mph 65% 0 in
08:45 68 °F 54.5 °F 30.12 in Calm   2 mph 62% 0 in
08:50 69.2 °F 54.7 °F 30.12 in Calm   2 mph 60% 0 in
08:55 70.8 °F 53.8 °F 30.12 in Calm   2 mph 55% 0 in
09:00 71.6 °F 53.6 °F 30.12 in SSW 1 mph 3 mph 53% 0 in
09:05 72.7 °F 53.5 °F 30.11 in Calm   4 mph 51% 0 in
09:10 70.7 °F 51.7 °F 30.11 in Calm   4 mph 51% 0 in
09:15 70.5 °F 52.6 °F 30.11 in Calm   1 mph 53% 0 in
09:20 71.1 °F 52.5 °F 30.11 in Calm     52% 0 in
09:25 70.4 °F 51.9 °F 30.11 in Calm   4 mph 52% 0 in
09:30 70 °F 52.1 °F 30.11 in Calm   2 mph 53% 0 in
09:35 70 °F 51.5 °F 30.11 in Calm   4 mph 52% 0 in
09:40 70.6 °F 51.6 °F 30.11 in Calm   2 mph 51% 0 in
09:45 71.7 °F 49.8 °F 30.10 in Calm   3 mph 46% 0 in
09:50 72.5 °F 48.1 °F 30.10 in SW 1.2 mph   42% 0 in
09:55 73.2 °F 46.8 °F 30.11 in WNW 1 mph 3 mph 39% 0 in
10:00 72.8 °F 47 °F 30.11 in Calm   3 mph 40% 0 in
10:05 72.3 °F 47.9 °F 30.11 in Calm   3 mph 42% 0 in
10:10 72.5 °F 48.1 °F 30.11 in Calm   3 mph 42% 0 in
10:15 74.2 °F 47.7 °F 30.10 in SSE 1 mph 3 mph 39% 0 in
10:20 74.9 °F 47.6 °F 30.10 in Calm   4 mph 38% 0 in
10:25 76.5 °F 47.5 °F 30.11 in SSE 1 mph 4 mph 36% 0 in
10:30 75.6 °F 47.5 °F 30.10 in SSW 1 mph 6 mph 37% 0 in
10:35 74.3 °F 45.6 °F 30.10 in West 5.8 mph 3.1 mph 36% 0 in
10:40 74.6 °F 45.9 °F 30.10 in Calm   6 mph 36% 0 in
10:45 76.6 °F 45.4 °F 30.10 in Calm   4 mph 33% 0 in
10:50 77.4 °F 46 °F 30.10 in Calm   4 mph 33% 0 in
10:55 75.7 °F 44.5 °F 30.10 in West 2 mph 6 mph 33% 0 in
11:00 74.5 °F 44.3 °F 30.10 in WNW 3 mph 7 mph 34% 0 in
11:05 74.6 °F 42.8 °F 30.10 in West 2 mph 5 mph 32% 0 in
11:10 75.4 °F 43.5 °F 30.09 in WSW 1 mph 8 mph 32% 0 in
11:15 76.7 °F 42.9 °F 30.09 in WSW 1 mph 6 mph 30% 0 in
11:20 77.5 °F 41.8 °F 30.09 in West 6.9 mph 4.5 mph 28% 0 in
11:25 76.8 °F 41.2 °F 30.09 in NW 3.5 mph 1.6 mph 28% 0 in
11:30 77.3 °F 43.5 °F 30.09 in WNW 2 mph 7 mph 30% 0 in
11:35 78.1 °F 40.4 °F 30.09 in NW 2 mph 7 mph 26% 0 in
11:40 78.4 °F 39.7 °F 30.08 in Calm   5 mph 25% 0 in
16:14 73.4 °F 48.3 °F 30.03 in NW 9.2 mph 3.1 mph 41% 0 in
16:15 73.2 °F 48.7 °F 30.03 in WNW 3 mph 13 mph 42% 0 in
16:20 73.9 °F 47.4 °F 30.03 in WNW 7 mph 15 mph 39% 0 in
16:25 73.9 °F 47.3 °F 30.04 in NW 2 mph 13 mph 39% 0 in
16:30 73.4 °F 47.6 °F 30.03 in NW 6 mph 13 mph 40% 0 in
16:35 72.4 °F 47.4 °F 30.03 in WNW 7 mph 13 mph 41% 0 in
16:40 71.6 °F 47.3 °F 30.03 in WNW 6 mph 13 mph 42% 0 in
16:45 71.4 °F 47.7 °F 30.03 in NW 3 mph 13 mph 43% 0 in
16:50 71.3 °F 47.6 °F 30.03 in WNW 3 mph 8 mph 43% 0 in
16:55 70.5 °F 48.7 °F 30.03 in WNW 5 mph 10 mph 46% 0 in
17:00 70 °F 49.4 °F 30.03 in WNW 3 mph 8 mph 48% 0 in
17:05 69.3 °F 50.4 °F 30.03 in WNW 1 mph 8 mph 51% 0 in
17:10 68.9 °F 50 °F 30.03 in WNW 5 mph 9 mph 51% 0 in
17:15 68.5 °F 51.2 °F 30.03 in WNW 1 mph 10 mph 54% 0 in
17:20 68.4 °F 52.5 °F 30.03 in NW 5 mph 8 mph 57% 0 in
17:25 67.6 °F 53.3 °F 30.03 in WNW 3 mph 8 mph 60% 0 in
17:30 67.5 °F 53.6 °F 30.02 in WNW 3 mph 8 mph 61% 0 in
17:35 67.8 °F 53.4 °F 30.02 in WNW 3 mph 9 mph 60% 0 in
17:40 68 °F 53.1 °F 30.03 in WNW 5 mph 9 mph 59% 0 in
17:45 68.1 °F 52.8 °F 30.02 in WNW 2 mph 8 mph 58% 0 in
17:50 68.4 °F 53 °F 30.02 in WNW 2 mph 8 mph 58% 0 in
17:55 68.7 °F 53.3 °F 30.02 in WNW 1 mph 8 mph 58% 0 in
18:00 68.7 °F 52.4 °F 30.02 in WNW 1 mph 7 mph 56% 0 in
18:05 68.9 °F 52.6 °F 30.02 in WNW 1 mph 5 mph 56% 0 in
18:10 69.1 °F 52.2 °F 30.02 in NW 3 mph 8 mph 55% 0 in
18:15 68.7 °F 52.4 °F 30.03 in NW 1 mph 8 mph 56% 0 in
18:20 68.5 °F 52.2 °F 30.03 in NW 3 mph 8 mph 56% 0 in
18:25 68.2 °F 53.3 °F 30.02 in NNW 3 mph 10 mph 59% 0 in
18:30 67.3 °F 53.8 °F 30.03 in NW 6 mph 17 mph 62% 0 in
18:35 66.4 °F 53.4 °F 30.03 in NW 2 mph 13 mph 63% 0 in
18:40 65.4 °F 53.7 °F 30.03 in NW 5 mph 16 mph 66% 0 in
18:45 64.6 °F 54.2 °F 30.04 in NW 6 mph 13 mph 69% 0 in
18:50 63.9 °F 54.7 °F 30.04 in NW 5 mph 13 mph 72% 0 in
18:55 63.4 °F 55.4 °F 30.05 in NW 6 mph 13 mph 75% 0 in
19:00 62.7 °F 56.4 °F 30.05 in NW 3 mph 14 mph 80% 0 in
19:05 61.7 °F 58.4 °F 30.05 in NW 9.2 mph 6 mph 89% 0 in
19:10 61.3 °F 59.3 °F 30.05 in NW 2 mph 11 mph 93% 0 in
19:15 61.2 °F 60 °F 30.05 in West 6.9 mph 3.8 mph 96% 0 in
19:20 60.8 °F 59.9 °F 30.06 in WNW 5 mph 11 mph 97% 0 in
19:25 60.4 °F 60.2 °F 30.05 in West 6.9 mph 0.7 mph 99% 0.012 in
19:30 60.3 °F 60 °F 30.05 in NW 3 mph 11 mph 99% 0.012 in
19:35 60 °F 59.7 °F 30.06 in WNW 5 mph 11 mph 99% 0 in
19:40 59.7 °F 59.4 °F 30.06 in WNW 5 mph 12 mph 99% 0 in
19:45 59.5 °F 59.3 °F 30.05 in Calm   10 mph 99% 0 in
19:50 59.5 °F 59.3 °F 30.05 in Calm   2 mph 99% 0 in
19:55 59.5 °F 59.3 °F 30.05 in Calm   3 mph 99% 0 in
20:00 59.4 °F 59.1 °F 30.05 in NW 2 mph 8 mph 99% 0.012 in
20:05 59.4 °F 59.1 °F 30.05 in WNW 5 mph 7 mph 99% 0 in
20:10 59.4 °F 59.1 °F 30.05 in WNW 3 mph 8 mph 99% 0 in
20:15 59.4 °F 59.2 °F 30.05 in WNW 2 mph 5 mph 99% 0 in
20:20 59.5 °F 59.3 °F 30.05 in WNW 2 mph 5 mph 99% 0 in
20:25 59.5 °F 59.3 °F 30.06 in Calm   5 mph 99% 0 in
Klamath Falls Weather
Compliments of Weather Underground - 2 mb